createdAt,value
2019-04-21T00:00:24.119Z,1020.03
2019-04-21T00:00:58.471Z,1020.01
2019-04-21T00:01:24.309Z,1019.99
2019-04-21T00:01:54.472Z,1020.01
2019-04-21T00:02:29.782Z,1020.02
2019-04-21T00:02:53.639Z,1019.97
2019-04-21T00:03:30.857Z,1019.99
2019-04-21T00:03:59.600Z,1019.95
2019-04-21T00:04:37.887Z,1019.96
2019-04-21T00:05:16.201Z,1019.97
2019-04-21T00:05:42.925Z,1019.95
2019-04-21T00:06:15.431Z,1019.89
2019-04-21T00:06:47.860Z,1019.92
2019-04-21T00:07:19.126Z,1019.93
2019-04-21T00:07:50.184Z,1019.93
2019-04-21T00:08:55.878Z,1019.91
2019-04-21T00:09:24.012Z,1019.9
2019-04-21T00:10:26.765Z,1019.93
2019-04-21T00:10:56.180Z,1019.89
2019-04-21T00:11:27.950Z,1019.91
2019-04-21T00:11:55.120Z,1019.89
2019-04-21T00:12:55.921Z,1019.86
2019-04-21T00:13:23.230Z,1019.89
2019-04-21T00:13:52.068Z,1019.82
2019-04-21T00:14:21.653Z,1019.85
2019-04-21T00:14:49.257Z,1019.82
2019-04-21T00:15:24.029Z,1019.81
2019-04-21T00:15:48.462Z,1019.8
2019-04-21T00:16:17.045Z,1019.82
2019-04-21T00:16:52.789Z,1019.81
2019-04-21T00:17:18.074Z,1019.78
2019-04-21T00:17:49.741Z,1019.77
2019-04-21T00:18:16.158Z,1019.8
2019-04-21T00:18:54.521Z,1019.77
2019-04-21T00:19:19.421Z,1019.79
2019-04-21T00:19:44.573Z,1019.78
2019-04-21T00:20:23.610Z,1019.8
2019-04-21T00:20:49.676Z,1019.77
2019-04-21T00:21:23.130Z,1019.77
2019-04-21T00:21:51.686Z,1019.75
2019-04-21T00:22:30.005Z,1019.78
2019-04-21T00:22:55.855Z,1019.74
2019-04-21T00:23:32.639Z,1019.8
2019-04-21T00:24:00.187Z,1019.79
2019-04-21T00:24:33.508Z,1019.77
2019-04-21T00:25:07.576Z,1019.76
2019-04-21T00:25:33.572Z,1019.73
2019-04-21T00:26:00.163Z,1019.77
2019-04-21T00:26:36.189Z,1019.73
2019-04-21T00:27:09.528Z,1019.75
2019-04-21T00:27:37.971Z,1019.72
2019-04-21T00:28:13.835Z,1019.73
2019-04-21T00:28:40.617Z,1019.74
2019-04-21T00:29:16.200Z,1019.72
2019-04-21T00:29:42.371Z,1019.73
2019-04-21T00:30:15.501Z,1019.69
2019-04-21T00:30:44.077Z,1019.72
2019-04-21T00:31:09.684Z,1019.75
2019-04-21T00:31:41.804Z,1019.75
2019-04-21T00:32:13.462Z,1019.71
2019-04-21T00:32:41.218Z,1019.74
2019-04-21T00:33:06.602Z,1019.73
2019-04-21T00:33:34.166Z,1019.74
2019-04-21T00:34:00.512Z,1019.7
2019-04-21T00:34:30.153Z,1019.73
2019-04-21T00:35:06.313Z,1019.68
2019-04-21T00:35:40.231Z,1019.71
2019-04-21T00:36:10.094Z,1019.74
2019-04-21T00:36:42.638Z,1019.7
2019-04-21T00:37:11.973Z,1019.7
2019-04-21T00:37:53.031Z,1019.67
2019-04-21T00:38:24.328Z,1019.67
2019-04-21T00:39:06.487Z,1019.65
2019-04-21T00:39:35.655Z,1019.65
2019-04-21T00:39:59.870Z,1019.67
2019-04-21T00:40:27.027Z,1019.65
2019-04-21T00:40:59.780Z,1019.63
2019-04-21T00:41:29.256Z,1019.61
2019-04-21T00:41:58.786Z,1019.6
2019-04-21T00:42:28.928Z,1019.61
2019-04-21T00:42:59.781Z,1019.59
2019-04-21T00:43:27.826Z,1019.58
2019-04-21T00:43:52.956Z,1019.59
2019-04-21T00:44:21.328Z,1019.57
2019-04-21T00:44:57.582Z,1019.59
2019-04-21T00:45:27.336Z,1019.53
2019-04-21T00:45:55.443Z,1019.53
2019-04-21T00:46:30.629Z,1019.55
2019-04-21T00:46:58.762Z,1019.51
2019-04-21T00:47:33.922Z,1019.56
2019-04-21T00:48:09.607Z,1019.55
2019-04-21T00:48:34.190Z,1019.53
2019-04-21T00:49:01.182Z,1019.53
2019-04-21T00:49:26.755Z,1019.5
2019-04-21T00:50:17.546Z,1019.5
2019-04-21T00:50:50.808Z,1019.51
2019-04-21T00:51:24.793Z,1019.52
2019-04-21T00:51:53.199Z,1019.5
2019-04-21T00:52:20.704Z,1019.48
2019-04-21T00:52:50.570Z,1019.47
2019-04-21T00:53:10.178Z,1019.45
2019-04-21T00:53:50.980Z,1019.5
2019-04-21T00:54:16.489Z,1019.46
2019-04-21T00:54:56.785Z,1019.45
2019-04-21T00:55:26.518Z,1019.41
2019-04-21T00:55:55.125Z,1019.44
2019-04-21T00:56:21.085Z,1019.44
2019-04-21T00:56:55.960Z,1019.39
2019-04-21T00:57:23.977Z,1019.37
2019-04-21T00:57:55.849Z,1019.37
2019-04-21T00:58:27.885Z,1019.36
2019-04-21T00:58:52.988Z,1019.35
2019-04-21T00:59:25.460Z,1019.37
2019-04-21T00:59:49.850Z,1019.35
2019-04-21T01:00:38.309Z,1019.3
2019-04-21T01:00:56.916Z,1019.32
2019-04-21T01:01:24.689Z,1019.32
2019-04-21T01:01:53.664Z,1019.34
2019-04-21T01:02:22.401Z,1019.33
2019-04-21T01:02:54.902Z,1019.34
2019-04-21T01:03:25.678Z,1019.35
2019-04-21T01:03:57.341Z,1019.32
2019-04-21T01:04:30.330Z,1019.29
2019-04-21T01:04:59.636Z,1019.28
2019-04-21T01:05:25.271Z,1019.28
2019-04-21T01:06:02.984Z,1019.27
2019-04-21T01:06:28.505Z,1019.24
2019-04-21T01:07:01.475Z,1019.27
2019-04-21T01:07:31.247Z,1019.26
2019-04-21T01:07:57.602Z,1019.25
2019-04-21T01:08:24.915Z,1019.22
2019-04-21T01:08:58.844Z,1019.23
2019-04-21T01:09:23.575Z,1019.26
2019-04-21T01:09:52.373Z,1019.25
2019-04-21T01:10:24.003Z,1019.23
2019-04-21T01:10:52.435Z,1019.18
2019-04-21T01:11:31.058Z,1019.2
2019-04-21T01:12:01.036Z,1019.17
2019-04-21T01:12:32.948Z,1019.17
2019-04-21T01:13:09.221Z,1019.16
2019-04-21T01:13:51.525Z,1019.18
2019-04-21T01:14:03.927Z,1019.15
2019-04-21T01:14:40.559Z,1019.15
2019-04-21T01:15:08.981Z,1019.16
2019-04-21T01:15:42.186Z,1019.16
2019-04-21T01:16:13.611Z,1019.15
2019-04-21T01:16:45.162Z,1019.15
2019-04-21T01:17:12.725Z,1019.18
2019-04-21T01:17:40.320Z,1019.14
2019-04-21T01:18:08.788Z,1019.17
2019-04-21T01:18:42.421Z,1019.16
2019-04-21T01:19:10.357Z,1019.15
2019-04-21T01:19:39.624Z,1019.14
2019-04-21T01:20:06.157Z,1019.17
2019-04-21T01:20:21.999Z,1019.15
2019-04-21T01:20:48.162Z,1019.15
2019-04-21T01:21:16.312Z,1019.13
2019-04-21T01:21:42.460Z,1019.15
2019-04-21T01:22:08.628Z,1019.14
2019-04-21T01:22:34.787Z,1019.13
2019-04-21T01:23:02.181Z,1019.13
2019-04-21T01:23:31.719Z,1019.13
2019-04-21T01:24:05.361Z,1019.12
2019-04-21T01:24:36.037Z,1019.12
2019-04-21T01:25:08.842Z,1019.12
2019-04-21T01:25:38.069Z,1019.12
2019-04-21T01:26:14.399Z,1019.14
2019-04-21T01:26:41.418Z,1019.12
2019-04-21T01:27:08.562Z,1019.09
2019-04-21T01:27:49.263Z,1019.07
2019-04-21T01:28:18.495Z,1019.1
2019-04-21T01:28:49.305Z,1019.09
2019-04-21T01:29:18.983Z,1019.11
2019-04-21T01:29:52.873Z,1019.07
2019-04-21T01:30:39.730Z,1019.09
2019-04-21T01:30:56.662Z,1019.1
2019-04-21T01:31:22.348Z,1019.13
2019-04-21T01:32:04.873Z,1019.08
2019-04-21T01:32:29.100Z,1019.06
2019-04-21T01:32:58.870Z,1019.07
2019-04-21T01:33:32.213Z,1019.07
2019-04-21T01:34:02.470Z,1019.1
2019-04-21T01:34:32.810Z,1019.08
2019-04-21T01:35:02.218Z,1019.06
2019-04-21T01:35:32.738Z,1019.07
2019-04-21T01:35:57.809Z,1019.04
2019-04-21T01:36:34.495Z,1019.02
2019-04-21T01:36:58.300Z,1019.02
2019-04-21T01:37:43.638Z,1019
2019-04-21T01:38:06.327Z,1019
2019-04-21T01:38:39.606Z,1019.01
2019-04-21T01:39:12.959Z,1019.03
2019-04-21T01:39:40.570Z,1018.99
2019-04-21T01:40:16.029Z,1019.02
2019-04-21T01:40:39.287Z,1019.06
2019-04-21T01:41:12.782Z,1019.03
2019-04-21T01:41:44.615Z,1018.98
2019-04-21T01:42:08.663Z,1019.01
2019-04-21T01:42:45.042Z,1018.96
2019-04-21T01:43:13.232Z,1019.02
2019-04-21T01:43:39.294Z,1019
2019-04-21T01:44:11.427Z,1018.96
2019-04-21T01:44:45.854Z,1019.01
2019-04-21T01:45:14.455Z,1018.93
2019-04-21T01:45:43.312Z,1019
2019-04-21T01:46:13.753Z,1019
2019-04-21T01:46:39.088Z,1019
2019-04-21T01:47:09.962Z,1018.99
2019-04-21T01:47:45.799Z,1019.01
2019-04-21T01:48:08.895Z,1018.97
2019-04-21T01:48:42.638Z,1018.99
2019-04-21T01:49:11.315Z,1018.97
2019-04-21T01:49:40.256Z,1018.99
2019-04-21T01:50:11.126Z,1018.97
2019-04-21T01:50:50.895Z,1018.96
2019-04-21T01:51:12.766Z,1018.97
2019-04-21T01:52:02.417Z,1018.98
2019-04-21T01:52:29.801Z,1018.98
2019-04-21T01:52:55.705Z,1018.97
2019-04-21T01:53:30.456Z,1018.98
2019-04-21T01:53:54.679Z,1018.96
2019-04-21T01:54:28.360Z,1018.94
2019-04-21T01:55:00.030Z,1018.89
2019-04-21T01:55:28.724Z,1018.94
2019-04-21T01:56:00.196Z,1018.92
2019-04-21T01:56:29.975Z,1018.88
2019-04-21T01:56:55.029Z,1018.92
2019-04-21T01:57:29.254Z,1018.89
2019-04-21T01:57:57.368Z,1018.91
2019-04-21T01:58:22.907Z,1018.88
2019-04-21T01:58:51.345Z,1018.89
2019-04-21T01:59:26.698Z,1018.86
2019-04-21T01:59:50.130Z,1018.85
2019-04-21T02:00:23.267Z,1018.85
2019-04-21T02:00:56.349Z,1018.84
2019-04-21T02:01:33.149Z,1018.85
2019-04-21T02:02:04.939Z,1018.81
2019-04-21T02:02:34.632Z,1018.84
2019-04-21T02:03:06.126Z,1018.86
2019-04-21T02:03:52.391Z,1018.83
2019-04-21T02:03:59.541Z,1018.82
2019-04-21T02:04:41.037Z,1018.82
2019-04-21T02:05:09.951Z,1018.8
2019-04-21T02:05:36.180Z,1018.83
2019-04-21T02:06:10.714Z,1018.77
2019-04-21T02:06:38.639Z,1018.8
2019-04-21T02:07:08.344Z,1018.82
2019-04-21T02:07:38.786Z,1018.84
2019-04-21T02:08:04.700Z,1018.8
2019-04-21T02:08:35.838Z,1018.77
2019-04-21T02:09:03.193Z,1018.79
2019-04-21T02:09:37.082Z,1018.8
2019-04-21T02:10:10.847Z,1018.8
2019-04-21T02:10:45.942Z,1018.79
2019-04-21T02:11:11.016Z,1018.79
2019-04-21T02:11:43.038Z,1018.78
2019-04-21T02:12:13.197Z,1018.78
2019-04-21T02:12:44.200Z,1018.81
2019-04-21T02:13:08.167Z,1018.81
2019-04-21T02:13:46.511Z,1018.8
2019-04-21T02:14:09.729Z,1018.76
2019-04-21T02:14:45.274Z,1018.8
2019-04-21T02:15:16.449Z,1018.78
2019-04-21T02:15:48.601Z,1018.77
2019-04-21T02:16:16.763Z,1018.78
2019-04-21T02:16:46.475Z,1018.76
2019-04-21T02:17:15.971Z,1018.77
2019-04-21T02:17:46.793Z,1018.75
2019-04-21T02:18:16.817Z,1018.76
2019-04-21T02:18:43.407Z,1018.73
2019-04-21T02:19:12.423Z,1018.69
2019-04-21T02:19:45.720Z,1018.73
2019-04-21T02:20:11.658Z,1018.71
2019-04-21T02:20:40.860Z,1018.7
2019-04-21T02:21:17.702Z,1018.7
2019-04-21T02:21:47.108Z,1018.68
2019-04-21T02:22:27.077Z,1018.69
2019-04-21T02:23:09.791Z,1018.65
2019-04-21T02:23:34.051Z,1018.67
2019-04-21T02:23:58.525Z,1018.66
2019-04-21T02:24:34.718Z,1018.66
2019-04-21T02:25:00.823Z,1018.68
2019-04-21T02:25:31.250Z,1018.63
2019-04-21T02:26:03.107Z,1018.63
2019-04-21T02:26:33.350Z,1018.65
2019-04-21T02:27:06.236Z,1018.64
2019-04-21T02:27:35.883Z,1018.64
2019-04-21T02:28:11.203Z,1018.64
2019-04-21T02:28:42.217Z,1018.61
2019-04-21T02:29:14.166Z,1018.67
2019-04-21T02:29:40.482Z,1018.62
2019-04-21T02:30:09.934Z,1018.64
2019-04-21T02:30:54.112Z,1018.64
2019-04-21T02:31:20.255Z,1018.63
2019-04-21T02:31:55.216Z,1018.59
2019-04-21T02:32:24.085Z,1018.61
2019-04-21T02:33:58.088Z,1018.58
2019-04-21T02:34:23.333Z,1018.56
2019-04-21T02:35:38.100Z,1018.59
2019-04-21T02:36:14.778Z,1018.52
2019-04-21T02:37:16.948Z,1018.54
2019-04-21T02:38:07.535Z,1018.54
2019-04-21T02:38:36.095Z,1018.56
2019-04-21T02:39:13.124Z,1018.51
2019-04-21T02:40:20.723Z,1018.51
2019-04-21T02:40:38.274Z,1018.53
2019-04-21T02:41:05.573Z,1018.53
2019-04-21T02:41:39.586Z,1018.53
2019-04-21T02:42:45.227Z,1018.48
2019-04-21T02:43:10.959Z,1018.48
2019-04-21T02:43:44.279Z,1018.46
2019-04-21T02:44:26.225Z,1018.46
2019-04-21T02:45:16.125Z,1018.43
2019-04-21T02:45:46.417Z,1018.41
2019-04-21T02:46:22.079Z,1018.43
2019-04-21T02:46:41.838Z,1018.4
2019-04-21T02:47:26.763Z,1018.4
2019-04-21T02:48:27.625Z,1018.4
2019-04-21T02:48:55.106Z,1018.4
2019-04-21T02:49:44.723Z,1018.36
2019-04-21T02:49:59.350Z,1018.32
2019-04-21T02:50:35.949Z,1018.35
2019-04-21T02:50:49.363Z,1018.33
2019-04-21T02:52:00.919Z,1018.34
2019-04-21T02:52:35.240Z,1018.35
2019-04-21T02:53:09.279Z,1018.37
2019-04-21T02:54:31.249Z,1018.34
2019-04-21T02:55:05.735Z,1018.31
2019-04-21T02:55:36.079Z,1018.34
2019-04-21T02:56:07.521Z,1018.3
2019-04-21T02:57:41.033Z,1018.29
2019-04-21T02:58:15.697Z,1018.33
2019-04-21T02:58:50.919Z,1018.29
2019-04-21T03:00:23.541Z,1018.28
2019-04-21T03:00:42.431Z,1018.27
2019-04-21T03:01:23.278Z,1018.29
2019-04-21T03:01:48.251Z,1018.27
2019-04-21T03:02:46.616Z,1018.22
2019-04-21T03:03:19.491Z,1018.26
2019-04-21T03:04:18.289Z,1018.18
2019-04-21T03:04:51.636Z,1018.25
2019-04-21T03:05:27.741Z,1018.19
2019-04-21T03:06:39.167Z,1018.19
2019-04-21T03:07:01.393Z,1018.22
2019-04-21T03:08:02.648Z,1018.18
2019-04-21T03:08:58.511Z,1018.17
2019-04-21T03:09:57.358Z,1018.17
2019-04-21T03:10:34.559Z,1018.13
2019-04-21T03:11:08.569Z,1018.16
2019-04-21T03:11:23.735Z,1018.16
2019-04-21T03:12:10.663Z,1018.15
2019-04-21T03:12:28.447Z,1018.13
2019-04-21T03:13:13.595Z,1018.13
2019-04-21T03:13:56.525Z,1018.16
2019-04-21T03:14:15.709Z,1018.09
2019-04-21T03:14:45.891Z,1018.13
2019-04-21T03:16:39.709Z,1018.1
2019-04-21T03:17:13.637Z,1018.09
2019-04-21T03:18:23.984Z,1018.07
2019-04-21T03:18:47.995Z,1018.08
2019-04-21T03:19:49.858Z,1018.08
2019-04-21T03:20:58.711Z,1018.05
2019-04-21T03:21:20.276Z,1018.03
2019-04-21T03:21:56.858Z,1018.02
2019-04-21T03:22:59.605Z,1018.04
2019-04-21T03:23:27.374Z,1018.05
2019-04-21T03:24:28.797Z,1018.01
2019-04-21T03:25:21.100Z,1018.03
2019-04-21T03:26:00.529Z,1017.98
2019-04-21T03:27:09.420Z,1017.94
2019-04-21T03:27:39.457Z,1017.95
2019-04-21T03:28:04.610Z,1017.97
2019-04-21T03:28:35.160Z,1017.93
2019-04-21T03:29:11.596Z,1017.93
2019-04-21T03:29:34.629Z,1017.88
2019-04-21T03:30:09.759Z,1017.91
2019-04-21T03:32:03.267Z,1017.89
2019-04-21T03:33:23.015Z,1017.89
2019-04-21T03:34:14.579Z,1017.89
2019-04-21T03:35:13.255Z,1017.87
2019-04-21T03:36:39.658Z,1017.86
2019-04-21T03:37:22.922Z,1017.89
2019-04-21T03:37:52.140Z,1017.88
2019-04-21T03:38:26.685Z,1017.85
2019-04-21T03:38:52.908Z,1017.87
2019-04-21T03:39:28.426Z,1017.86
2019-04-21T03:40:18.402Z,1017.88
2019-04-21T03:40:57.039Z,1017.87
2019-04-21T03:41:28.589Z,1017.9
2019-04-21T03:43:26.625Z,1017.88
2019-04-21T03:43:58.705Z,1017.88
2019-04-21T03:44:44.733Z,1017.86
2019-04-21T03:45:02.857Z,1017.89
2019-04-21T03:46:22.835Z,1017.89
2019-04-21T03:46:40.848Z,1017.89
2019-04-21T03:47:34.352Z,1017.85
2019-04-21T03:48:07.218Z,1017.87
2019-04-21T03:49:47.089Z,1017.84
2019-04-21T03:50:10.879Z,1017.85
2019-04-21T03:50:38.626Z,1017.85
2019-04-21T03:51:25.425Z,1017.88
2019-04-21T03:51:45.542Z,1017.86
2019-04-21T03:53:18.290Z,1017.82
2019-04-21T03:53:45.720Z,1017.74
2019-04-21T03:54:15.277Z,1017.8
2019-04-21T03:54:53.017Z,1017.78
2019-04-21T03:55:40.804Z,1017.77
2019-04-21T03:56:26.857Z,1017.75
2019-04-21T03:57:31.120Z,1017.73
2019-04-21T03:58:04.079Z,1017.74
2019-04-21T03:58:57.866Z,1017.7
2019-04-21T03:59:15.881Z,1017.73
2019-04-21T04:00:05.954Z,1017.74
2019-04-21T04:00:41.629Z,1017.75
2019-04-21T04:01:21.391Z,1017.74
2019-04-21T04:02:05.555Z,1017.75
2019-04-21T04:02:32.512Z,1017.75
2019-04-21T04:03:23.329Z,1017.75
2019-04-21T04:04:13.175Z,1017.79
2019-04-21T04:05:10.729Z,1017.78
2019-04-21T04:05:47.638Z,1017.76
2019-04-21T04:06:07.684Z,1017.77
2019-04-21T04:07:10.476Z,1017.77
2019-04-21T04:07:49.379Z,1017.78
2019-04-21T04:08:49.546Z,1017.81
2019-04-21T04:09:44.238Z,1017.79
2019-04-21T04:10:11.504Z,1017.86
2019-04-21T04:10:49.824Z,1017.86
2019-04-21T04:11:19.314Z,1017.83
2019-04-21T04:11:50.214Z,1017.83
2019-04-21T04:12:10.946Z,1017.85
2019-04-21T04:12:50.053Z,1017.8
2019-04-21T04:13:13.369Z,1017.81
2019-04-21T04:13:55.271Z,1017.85
2019-04-21T04:14:22.334Z,1017.84
2019-04-21T04:14:49.899Z,1017.84
2019-04-21T04:15:55.852Z,1017.87
2019-04-21T04:17:11.385Z,1017.85
2019-04-21T04:17:53.751Z,1017.87
2019-04-21T04:18:38.853Z,1017.85
2019-04-21T04:20:21.913Z,1017.82
2019-04-21T04:20:42.201Z,1017.86
2019-04-21T04:22:19.217Z,1017.83
2019-04-21T04:23:07.614Z,1017.83
2019-04-21T04:23:44.831Z,1017.81
2019-04-21T04:24:57.356Z,1017.8
2019-04-21T04:25:09.139Z,1017.8
2019-04-21T04:25:42.222Z,1017.84
2019-04-21T04:26:12.818Z,1017.82
2019-04-21T04:27:59.215Z,1017.85
2019-04-21T04:28:37.968Z,1017.82
2019-04-21T04:28:54.011Z,1017.81
2019-04-21T04:29:19.037Z,1017.82
2019-04-21T04:29:50.015Z,1017.83
2019-04-21T04:30:21.359Z,1017.83
2019-04-21T04:31:29.983Z,1017.83
2019-04-21T04:32:22.939Z,1017.83
2019-04-21T04:32:46.083Z,1017.79
2019-04-21T04:33:27.647Z,1017.83
2019-04-21T04:34:03.992Z,1017.82
2019-04-21T04:35:09.572Z,1017.79
2019-04-21T04:35:33.449Z,1017.81
2019-04-21T04:37:04.929Z,1017.79
2019-04-21T04:38:02.875Z,1017.8
2019-04-21T04:38:37.581Z,1017.78
2019-04-21T04:39:13.858Z,1017.77
2019-04-21T04:40:09.011Z,1017.8
2019-04-21T04:40:46.700Z,1017.79
2019-04-21T04:41:14.308Z,1017.79
2019-04-21T04:41:41.327Z,1017.79
2019-04-21T04:42:21.062Z,1017.83
2019-04-21T04:42:45.054Z,1017.83
2019-04-21T04:43:11.443Z,1017.82
2019-04-21T04:43:44.275Z,1017.84
2019-04-21T04:44:22.508Z,1017.84
2019-04-21T04:44:54.013Z,1017.83
2019-04-21T04:45:23.629Z,1017.85
2019-04-21T04:45:43.805Z,1017.82
2019-04-21T04:46:17.501Z,1017.86
2019-04-21T04:47:32.265Z,1017.84
2019-04-21T04:47:58.069Z,1017.87
2019-04-21T04:48:19.086Z,1017.86
2019-04-21T04:49:10.407Z,1017.85
2019-04-21T04:49:36.154Z,1017.85
2019-04-21T04:49:51.314Z,1017.82
2019-04-21T04:50:29.562Z,1017.84
2019-04-21T04:51:43.633Z,1017.86
2019-04-21T04:52:50.979Z,1017.85
2019-04-21T04:53:39.563Z,1017.86
2019-04-21T04:53:50.471Z,1017.85
2019-04-21T04:54:46.750Z,1017.85
2019-04-21T04:55:06.244Z,1017.82
2019-04-21T04:55:38.659Z,1017.8
2019-04-21T04:56:38.108Z,1017.79
2019-04-21T04:57:52.687Z,1017.82
2019-04-21T04:58:28.674Z,1017.8
2019-04-21T04:58:59.218Z,1017.8
2019-04-21T05:00:53.528Z,1017.82
2019-04-21T05:01:59.341Z,1017.79
2019-04-21T05:02:48.034Z,1017.79
2019-04-21T05:04:05.633Z,1017.78
2019-04-21T05:04:23.375Z,1017.77
2019-04-21T05:05:33.945Z,1017.75
2019-04-21T05:05:55.318Z,1017.76
2019-04-21T05:06:56.058Z,1017.72
2019-04-21T05:07:31.702Z,1017.71
2019-04-21T05:08:19.049Z,1017.71
2019-04-21T05:08:41.738Z,1017.72
2019-04-21T05:09:30.381Z,1017.68
2019-04-21T05:09:58.793Z,1017.71
2019-04-21T05:10:47.121Z,1017.71
2019-04-21T05:11:05.789Z,1017.69
2019-04-21T05:12:15.575Z,1017.71
2019-04-21T05:12:35.528Z,1017.7
2019-04-21T05:13:05.842Z,1017.72
2019-04-21T05:13:43.173Z,1017.67
2019-04-21T05:14:38.217Z,1017.71
2019-04-21T05:15:07.233Z,1017.71
2019-04-21T05:15:31.603Z,1017.68
2019-04-21T05:16:09.609Z,1017.74
2019-04-21T05:16:51.598Z,1017.69
2019-04-21T05:17:13.818Z,1017.72
2019-04-21T05:17:42.749Z,1017.72
2019-04-21T05:18:12.909Z,1017.73
2019-04-21T05:18:52.346Z,1017.71
2019-04-21T05:19:14.437Z,1017.73
2019-04-21T05:20:01.485Z,1017.73
2019-04-21T05:20:41.417Z,1017.7
2019-04-21T05:21:23.034Z,1017.71
2019-04-21T05:21:38.503Z,1017.71
2019-04-21T05:22:16.682Z,1017.74
2019-04-21T05:22:42.124Z,1017.69
2019-04-21T05:23:11.562Z,1017.71
2019-04-21T05:23:37.478Z,1017.7
2019-04-21T05:23:59.655Z,1017.7
2019-04-21T05:24:33.092Z,1017.71
2019-04-21T05:25:03.290Z,1017.67
2019-04-21T05:25:33.389Z,1017.68
2019-04-21T05:25:57.857Z,1017.66
2019-04-21T05:26:31.048Z,1017.65
2019-04-21T05:27:02.572Z,1017.65
2019-04-21T05:27:33.067Z,1017.65
2019-04-21T05:28:03.225Z,1017.6
2019-04-21T05:28:32.409Z,1017.64
2019-04-21T05:29:01.439Z,1017.65
2019-04-21T05:29:37.350Z,1017.59
2019-04-21T05:30:16.755Z,1017.61
2019-04-21T05:30:48.630Z,1017.62
2019-04-21T05:31:17.805Z,1017.6
2019-04-21T05:31:49.265Z,1017.61
2019-04-21T05:32:16.789Z,1017.63
2019-04-21T05:32:44.919Z,1017.63
2019-04-21T05:33:18.564Z,1017.65
2019-04-21T05:33:52.830Z,1017.62
2019-04-21T05:34:21.790Z,1017.63
2019-04-21T05:34:50.161Z,1017.62
2019-04-21T05:35:19.731Z,1017.62
2019-04-21T05:35:48.769Z,1017.62
2019-04-21T05:36:18.524Z,1017.62
2019-04-21T05:36:50.111Z,1017.63
2019-04-21T05:37:24.343Z,1017.65
2019-04-21T05:37:53.446Z,1017.63
2019-04-21T05:38:21.229Z,1017.62
2019-04-21T05:38:52.881Z,1017.66
2019-04-21T05:39:18.273Z,1017.63
2019-04-21T05:39:52.131Z,1017.61
2019-04-21T05:40:21.754Z,1017.64
2019-04-21T05:40:51.895Z,1017.59
2019-04-21T05:41:20.489Z,1017.61
2019-04-21T05:41:47.363Z,1017.62
2019-04-21T05:42:23.564Z,1017.62
2019-04-21T05:42:54.750Z,1017.64
2019-04-21T05:43:32.095Z,1017.65
2019-04-21T05:44:03.580Z,1017.64
2019-04-21T05:44:41.158Z,1017.63
2019-04-21T05:45:07.045Z,1017.65
2019-04-21T05:45:33.212Z,1017.65
2019-04-21T05:46:04.228Z,1017.61
2019-04-21T05:46:38.513Z,1017.65
2019-04-21T05:47:13.764Z,1017.66
2019-04-21T05:47:39.446Z,1017.67
2019-04-21T05:48:16.937Z,1017.68
2019-04-21T05:48:39.000Z,1017.64
2019-04-21T05:49:09.153Z,1017.68
2019-04-21T05:49:32.556Z,1017.68
2019-04-21T05:50:06.067Z,1017.69
2019-04-21T05:50:31.910Z,1017.67
2019-04-21T05:51:02.979Z,1017.7
2019-04-21T05:51:34.977Z,1017.73
2019-04-21T05:52:37.839Z,1017.68
2019-04-21T05:53:19.875Z,1017.7
2019-04-21T05:53:46.567Z,1017.68
2019-04-21T05:54:22.671Z,1017.68
2019-04-21T05:54:49.468Z,1017.69
2019-04-21T05:55:16.416Z,1017.7
2019-04-21T05:55:48.951Z,1017.7
2019-04-21T05:56:15.829Z,1017.7
2019-04-21T05:56:40.457Z,1017.71
2019-04-21T05:57:14.220Z,1017.72
2019-04-21T05:57:45.592Z,1017.72
2019-04-21T05:58:11.063Z,1017.71
2019-04-21T05:58:47.822Z,1017.71
2019-04-21T05:59:19.928Z,1017.73
2019-04-21T05:59:48.755Z,1017.72
2019-04-21T06:00:22.815Z,1017.71
2019-04-21T06:01:05.888Z,1017.68
2019-04-21T06:01:28.361Z,1017.74
2019-04-21T06:01:55.240Z,1017.74
2019-04-21T06:02:28.709Z,1017.72
2019-04-21T06:02:57.510Z,1017.69
2019-04-21T06:03:22.846Z,1017.69
2019-04-21T06:03:56.857Z,1017.67
2019-04-21T06:04:38.131Z,1017.71
2019-04-21T06:05:05.214Z,1017.68
2019-04-21T06:05:36.367Z,1017.64
2019-04-21T06:06:08.121Z,1017.68
2019-04-21T06:06:32.121Z,1017.69
2019-04-21T06:07:04.165Z,1017.68
2019-04-21T06:07:33.233Z,1017.69
2019-04-21T06:08:00.197Z,1017.66
2019-04-21T06:08:30.684Z,1017.65
2019-04-21T06:08:58.174Z,1017.62
2019-04-21T06:09:34.717Z,1017.58
2019-04-21T06:10:34.499Z,1017.58
2019-04-21T06:11:07.104Z,1017.6
2019-04-21T06:11:35.810Z,1017.58
2019-04-21T06:12:08.331Z,1017.6
2019-04-21T06:12:39.987Z,1017.61
2019-04-21T06:13:11.293Z,1017.58
2019-04-21T06:14:07.531Z,1017.59
2019-04-21T06:14:43.393Z,1017.53
2019-04-21T06:15:13.393Z,1017.56
2019-04-21T06:15:42.747Z,1017.57
2019-04-21T06:16:06.955Z,1017.56
2019-04-21T06:16:55.398Z,1017.53
2019-04-21T06:17:18.700Z,1017.58
2019-04-21T06:17:42.658Z,1017.54
2019-04-21T06:18:18.750Z,1017.53
2019-04-21T06:18:46.965Z,1017.53
2019-04-21T06:19:10.006Z,1017.52
2019-04-21T06:19:49.171Z,1017.53
2019-04-21T06:20:20.489Z,1017.5
2019-04-21T06:20:46.218Z,1017.53
2019-04-21T06:21:15.756Z,1017.53
2019-04-21T06:21:44.402Z,1017.53
2019-04-21T06:22:13.644Z,1017.53
2019-04-21T06:22:50.226Z,1017.53
2019-04-21T06:23:17.739Z,1017.52
2019-04-21T06:23:44.583Z,1017.54
2019-04-21T06:24:14.621Z,1017.54
2019-04-21T06:25:10.592Z,1017.53
2019-04-21T06:27:37.561Z,1017.46
2019-04-21T06:27:57.059Z,1017.51
2019-04-21T06:28:33.251Z,1017.52
2019-04-21T06:28:56.474Z,1017.55
2019-04-21T06:29:28.376Z,1017.49
2019-04-21T06:29:53.840Z,1017.5
2019-04-21T06:30:30.737Z,1017.52
2019-04-21T06:31:19.509Z,1017.51
2019-04-21T06:32:20.168Z,1017.5
2019-04-21T06:32:46.568Z,1017.51
2019-04-21T06:33:03.455Z,1017.49
2019-04-21T06:33:40.173Z,1017.48
2019-04-21T06:34:07.893Z,1017.5
2019-04-21T06:34:56.388Z,1017.51
2019-04-21T06:35:39.586Z,1017.48
2019-04-21T06:36:30.440Z,1017.52
2019-04-21T06:36:46.804Z,1017.42
2019-04-21T06:37:34.078Z,1017.44
2019-04-21T06:37:48.946Z,1017.44
2019-04-21T06:38:21.125Z,1017.46
2019-04-21T06:38:59.350Z,1017.49
2019-04-21T06:39:15.202Z,1017.49
2019-04-21T06:40:01.402Z,1017.5
2019-04-21T06:40:27.568Z,1017.49
2019-04-21T06:40:47.830Z,1017.47
2019-04-21T06:41:26.041Z,1017.46
2019-04-21T06:41:45.078Z,1017.47
2019-04-21T06:42:18.242Z,1017.46
2019-04-21T06:43:04.205Z,1017.47
2019-04-21T06:44:20.062Z,1017.49
2019-04-21T06:44:57.053Z,1017.49
2019-04-21T06:45:46.899Z,1017.44
2019-04-21T06:45:58.684Z,1017.48
2019-04-21T06:46:34.760Z,1017.46
2019-04-21T06:47:05.793Z,1017.51
2019-04-21T06:47:34.892Z,1017.45
2019-04-21T06:48:04.019Z,1017.44
2019-04-21T06:48:32.507Z,1017.44
2019-04-21T06:49:02.195Z,1017.44
2019-04-21T06:49:29.807Z,1017.46
2019-04-21T06:50:00.002Z,1017.44
2019-04-21T06:50:39.383Z,1017.45
2019-04-21T06:51:08.429Z,1017.45
2019-04-21T06:51:46.661Z,1017.46
2019-04-21T06:52:13.193Z,1017.4
2019-04-21T06:53:02.367Z,1017.47
2019-04-21T06:53:44.200Z,1017.43
2019-04-21T06:54:14.116Z,1017.44
2019-04-21T06:55:13.603Z,1017.42
2019-04-21T06:55:43.296Z,1017.45
2019-04-21T06:56:11.915Z,1017.49
2019-04-21T06:56:56.024Z,1017.52
2019-04-21T06:57:16.373Z,1017.54
2019-04-21T06:57:42.959Z,1017.56
2019-04-21T06:58:09.878Z,1017.53
2019-04-21T06:58:42.603Z,1017.46
2019-04-21T06:59:13.246Z,1017.51
2019-04-21T06:59:42.932Z,1017.48
2019-04-21T07:00:18.287Z,1017.45
2019-04-21T07:00:46.754Z,1017.47
2019-04-21T07:01:22.807Z,1017.51
2019-04-21T07:02:21.033Z,1017.49
2019-04-21T07:02:35.962Z,1017.44
2019-04-21T07:03:01.035Z,1017.43
2019-04-21T07:03:26.596Z,1017.46
2019-04-21T07:03:56.756Z,1017.42
2019-04-21T07:04:22.156Z,1017.44
2019-04-21T07:05:00.068Z,1017.41
2019-04-21T07:05:33.347Z,1017.42
2019-04-21T07:06:03.092Z,1017.42
2019-04-21T07:06:35.114Z,1017.46
2019-04-21T07:06:59.101Z,1017.44
2019-04-21T07:07:27.284Z,1017.47
2019-04-21T07:08:14.557Z,1017.47
2019-04-21T07:08:34.236Z,1017.47
2019-04-21T07:09:50.947Z,1017.41
2019-04-21T07:10:36.670Z,1017.45
2019-04-21T07:11:08.162Z,1017.44